sensor_id;sensor_type;location;lat;lon;timestamp;temperature;humidity
38263;DHT22;24054;50.128;19.730;2024-02-26T00:00:26;21.90;53.20
38263;DHT22;24054;50.128;19.730;2024-02-26T00:02:55;21.90;53.20
38263;DHT22;24054;50.128;19.730;2024-02-26T01:09:01;21.60;52.50
38263;DHT22;24054;50.128;19.730;2024-02-26T01:11:29;21.60;52.50
38263;DHT22;24054;50.128;19.730;2024-02-26T01:13:56;21.60;52.50
38263;DHT22;24054;50.128;19.730;2024-02-26T01:16:24;21.60;52.40
38263;DHT22;24054;50.128;19.730;2024-02-26T01:18:51;21.60;52.50
38263;DHT22;24054;50.128;19.730;2024-02-26T01:21:18;21.50;52.40
38263;DHT22;24054;50.128;19.730;2024-02-26T01:23:45;21.50;52.40
38263;DHT22;24054;50.128;19.730;2024-02-26T01:26:13;21.50;52.40
38263;DHT22;24054;50.128;19.730;2024-02-26T01:28:41;21.50;52.40
38263;DHT22;24054;50.128;19.730;2024-02-26T01:31:09;21.50;52.30
38263;DHT22;24054;50.128;19.730;2024-02-26T01:33:36;21.50;52.30
38263;DHT22;24054;50.128;19.730;2024-02-26T01:36:04;21.50;52.30
38263;DHT22;24054;50.128;19.730;2024-02-26T01:38:31;21.50;52.20
38263;DHT22;24054;50.128;19.730;2024-02-26T01:40:58;21.50;52.20
38263;DHT22;24054;50.128;19.730;2024-02-26T01:43:27;21.40;52.10
38263;DHT22;24054;50.128;19.730;2024-02-26T01:45:54;21.50;52.10
38263;DHT22;24054;50.128;19.730;2024-02-26T01:48:22;21.50;52.00
38263;DHT22;24054;50.128;19.730;2024-02-26T01:50:49;21.40;52.00
38263;DHT22;24054;50.128;19.730;2024-02-26T01:53:17;21.40;52.00
38263;DHT22;24054;50.128;19.730;2024-02-26T01:55:45;21.40;52.10
38263;DHT22;24054;50.128;19.730;2024-02-26T01:58:13;21.40;52.00
38263;DHT22;24054;50.128;19.730;2024-02-26T02:00:42;21.40;51.90
38263;DHT22;24054;50.128;19.730;2024-02-26T02:03:10;21.40;51.90
38263;DHT22;24054;50.128;19.730;2024-02-26T02:05:37;21.40;51.90
38263;DHT22;24054;50.128;19.730;2024-02-26T02:08:07;21.40;51.90
38263;DHT22;24054;50.128;19.730;2024-02-26T02:10:35;21.40;51.90
38263;DHT22;24054;50.128;19.730;2024-02-26T02:13:03;21.40;51.90
38263;DHT22;24054;50.128;19.730;2024-02-26T02:15:30;21.30;51.70
38263;DHT22;24054;50.128;19.730;2024-02-26T02:17:59;21.30;51.80
38263;DHT22;24054;50.128;19.730;2024-02-26T02:20:32;21.30;51.70
38263;DHT22;24054;50.128;19.730;2024-02-26T02:22:59;21.30;51.80
38263;DHT22;24054;50.128;19.730;2024-02-26T02:25:26;21.30;51.80
38263;DHT22;24054;50.128;19.730;2024-02-26T02:27:54;21.30;51.80
38263;DHT22;24054;50.128;19.730;2024-02-26T02:30:24;21.30;51.70
38263;DHT22;24054;50.128;19.730;2024-02-26T02:32:52;21.30;51.70
38263;DHT22;24054;50.128;19.730;2024-02-26T02:35:20;21.30;51.70
38263;DHT22;24054;50.128;19.730;2024-02-26T02:37:49;21.30;51.70
38263;DHT22;24054;50.128;19.730;2024-02-26T02:40:16;21.30;51.70
38263;DHT22;24054;50.128;19.730;2024-02-26T02:42:43;21.20;51.60
38263;DHT22;24054;50.128;19.730;2024-02-26T02:45:10;21.30;51.70
38263;DHT22;24054;50.128;19.730;2024-02-26T02:47:37;21.30;51.70
38263;DHT22;24054;50.128;19.730;2024-02-26T02:50:05;21.20;51.50
38263;DHT22;24054;50.128;19.730;2024-02-26T02:52:32;21.20;51.50
38263;DHT22;24054;50.128;19.730;2024-02-26T02:55:01;21.20;51.60
38263;DHT22;24054;50.128;19.730;2024-02-26T02:57:28;21.20;51.60
38263;DHT22;24054;50.128;19.730;2024-02-26T02:59:56;21.20;51.50
38263;DHT22;24054;50.128;19.730;2024-02-26T03:02:23;21.20;51.60
38263;DHT22;24054;50.128;19.730;2024-02-26T03:04:51;21.20;51.60
38263;DHT22;24054;50.128;19.730;2024-02-26T03:07:18;21.20;51.50
38263;DHT22;24054;50.128;19.730;2024-02-26T03:09:45;21.20;51.50
38263;DHT22;24054;50.128;19.730;2024-02-26T03:12:14;21.20;51.50
38263;DHT22;24054;50.128;19.730;2024-02-26T03:14:41;21.20;51.40
38263;DHT22;24054;50.128;19.730;2024-02-26T03:17:08;21.20;51.60
38263;DHT22;24054;50.128;19.730;2024-02-26T03:19:35;21.20;51.60
38263;DHT22;24054;50.128;19.730;2024-02-26T03:22:02;21.10;51.40
38263;DHT22;24054;50.128;19.730;2024-02-26T03:24:29;21.10;51.40
38263;DHT22;24054;50.128;19.730;2024-02-26T03:26:57;21.10;51.40
38263;DHT22;24054;50.128;19.730;2024-02-26T03:29:26;21.10;51.40
38263;DHT22;24054;50.128;19.730;2024-02-26T03:31:53;21.10;51.40
38263;DHT22;24054;50.128;19.730;2024-02-26T03:34:20;21.10;51.40
38263;DHT22;24054;50.128;19.730;2024-02-26T03:36:47;21.10;51.40
38263;DHT22;24054;50.128;19.730;2024-02-26T03:39:14;21.10;51.40
38263;DHT22;24054;50.128;19.730;2024-02-26T03:41:41;21.10;51.30
38263;DHT22;24054;50.128;19.730;2024-02-26T03:44:08;21.10;51.40
38263;DHT22;24054;50.128;19.730;2024-02-26T03:46:37;21.10;51.30
38263;DHT22;24054;50.128;19.730;2024-02-26T03:49:05;21.10;51.30
38263;DHT22;24054;50.128;19.730;2024-02-26T03:51:33;21.00;51.30
38263;DHT22;24054;50.128;19.730;2024-02-26T03:54:00;21.00;51.20
38263;DHT22;24054;50.128;19.730;2024-02-26T03:56:27;21.10;51.40
38263;DHT22;24054;50.128;19.730;2024-02-26T03:58:55;21.00;51.20
38263;DHT22;24054;50.128;19.730;2024-02-26T04:01:22;21.00;51.20
38263;DHT22;24054;50.128;19.730;2024-02-26T04:03:51;21.00;51.20
38263;DHT22;24054;50.128;19.730;2024-02-26T04:06:18;21.00;51.20
38263;DHT22;24054;50.128;19.730;2024-02-26T04:08:46;21.00;51.20
38263;DHT22;24054;50.128;19.730;2024-02-26T04:11:14;21.00;51.20
38263;DHT22;24054;50.128;19.730;2024-02-26T04:13:43;21.00;51.20
38263;DHT22;24054;50.128;19.730;2024-02-26T04:16:11;20.90;51.10
38263;DHT22;24054;50.128;19.730;2024-02-26T04:18:38;21.00;51.10
38263;DHT22;24054;50.128;19.730;2024-02-26T04:21:07;21.00;51.10
38263;DHT22;24054;50.128;19.730;2024-02-26T04:23:35;21.00;51.00
38263;DHT22;24054;50.128;19.730;2024-02-26T04:26:03;21.00;51.00
38263;DHT22;24054;50.128;19.730;2024-02-26T04:28:30;20.90;50.90
38263;DHT22;24054;50.128;19.730;2024-02-26T04:30:57;20.90;50.90
38263;DHT22;24054;50.128;19.730;2024-02-26T04:33:24;20.90;50.90
38263;DHT22;24054;50.128;19.730;2024-02-26T04:35:51;20.90;51.00
38263;DHT22;24054;50.128;19.730;2024-02-26T04:38:21;20.90;50.90
38263;DHT22;24054;50.128;19.730;2024-02-26T04:43:15;20.90;50.40
38263;DHT22;24054;50.128;19.730;2024-02-26T04:45:43;20.90;51.40
38263;DHT22;24054;50.128;19.730;2024-02-26T04:48:10;20.90;56.20
38263;DHT22;24054;50.128;19.730;2024-02-26T04:50:37;20.90;50.80
38263;DHT22;24054;50.128;19.730;2024-02-26T04:53:05;20.90;50.80
38263;DHT22;24054;50.128;19.730;2024-02-26T04:55:33;20.80;50.70
38263;DHT22;24054;50.128;19.730;2024-02-26T04:58:00;20.90;50.80
38263;DHT22;24054;50.128;19.730;2024-02-26T05:00:27;20.80;50.70
38263;DHT22;24054;50.128;19.730;2024-02-26T05:02:55;20.80;50.70
38263;DHT22;24054;50.128;19.730;2024-02-26T05:05:22;20.80;50.70
38263;DHT22;24054;50.128;19.730;2024-02-26T05:07:50;20.80;50.70
38263;DHT22;24054;50.128;19.730;2024-02-26T05:10:17;20.80;50.70
38263;DHT22;24054;50.128;19.730;2024-02-26T05:12:46;20.80;50.70
38263;DHT22;24054;50.128;19.730;2024-02-26T05:15:13;20.80;50.60
38263;DHT22;24054;50.128;19.730;2024-02-26T05:17:43;20.80;50.60
38263;DHT22;24054;50.128;19.730;2024-02-26T05:20:11;20.80;50.70
38263;DHT22;24054;50.128;19.730;2024-02-26T05:22:38;20.80;50.60
38263;DHT22;24054;50.128;19.730;2024-02-26T05:25:06;20.80;50.60
38263;DHT22;24054;50.128;19.730;2024-02-26T05:27:33;20.70;50.60
38263;DHT22;24054;50.128;19.730;2024-02-26T05:30:02;20.80;50.60
38263;DHT22;24054;50.128;19.730;2024-02-26T05:32:29;20.80;50.60
38263;DHT22;24054;50.128;19.730;2024-02-26T05:34:56;20.70;50.50
38263;DHT22;24054;50.128;19.730;2024-02-26T05:37:23;20.70;50.50
38263;DHT22;24054;50.128;19.730;2024-02-26T05:39:50;20.70;50.50
38263;DHT22;24054;50.128;19.730;2024-02-26T05:44:45;20.70;49.90
38263;DHT22;24054;50.128;19.730;2024-02-26T05:47:13;20.70;50.40
38263;DHT22;24054;50.128;19.730;2024-02-26T05:49:41;20.70;50.40
38263;DHT22;24054;50.128;19.730;2024-02-26T05:52:08;20.70;50.40
38263;DHT22;24054;50.128;19.730;2024-02-26T05:54:35;20.70;50.40
38263;DHT22;24054;50.128;19.730;2024-02-26T05:57:03;20.70;50.40
38263;DHT22;24054;50.128;19.730;2024-02-26T05:59:30;20.70;50.40
38263;DHT22;24054;50.128;19.730;2024-02-26T06:01:57;20.70;50.30
38263;DHT22;24054;50.128;19.730;2024-02-26T06:04:26;20.70;50.40
38263;DHT22;24054;50.128;19.730;2024-02-26T06:06:53;20.70;50.30
38263;DHT22;24054;50.128;19.730;2024-02-26T06:09:20;20.70;50.30
38263;DHT22;24054;50.128;19.730;2024-02-26T06:11:47;20.60;50.20
38263;DHT22;24054;50.128;19.730;2024-02-26T06:14:14;20.70;50.40
38263;DHT22;24054;50.128;19.730;2024-02-26T06:16:43;20.70;50.40
38263;DHT22;24054;50.128;19.730;2024-02-26T06:19:10;20.70;50.50
38263;DHT22;24054;50.128;19.730;2024-02-26T06:21:39;20.80;50.50
38263;DHT22;24054;50.128;19.730;2024-02-26T06:24:06;20.90;50.50
38263;DHT22;24054;50.128;19.730;2024-02-26T06:26:33;20.80;50.40
38263;DHT22;24054;50.128;19.730;2024-02-26T06:29:00;21.00;50.20
38263;DHT22;24054;50.128;19.730;2024-02-26T06:31:28;21.10;50.20
38263;DHT22;24054;50.128;19.730;2024-02-26T06:33:55;21.10;50.10
38263;DHT22;24054;50.128;19.730;2024-02-26T06:36:22;21.20;50.00
38263;DHT22;24054;50.128;19.730;2024-02-26T06:38:50;21.20;50.00
38263;DHT22;24054;50.128;19.730;2024-02-26T06:41:19;21.30;50.00
38263;DHT22;24054;50.128;19.730;2024-02-26T06:43:46;21.30;49.80
38263;DHT22;24054;50.128;19.730;2024-02-26T06:46:14;21.40;49.80
38263;DHT22;24054;50.128;19.730;2024-02-26T06:48:41;21.40;49.80
38263;DHT22;24054;50.128;19.730;2024-02-26T06:51:08;21.50;49.70
38263;DHT22;24054;50.128;19.730;2024-02-26T06:53:35;21.50;49.60
38263;DHT22;24054;50.128;19.730;2024-02-26T06:56:04;21.60;49.60
38263;DHT22;24054;50.128;19.730;2024-02-26T06:58:31;21.60;49.50
38263;DHT22;24054;50.128;19.730;2024-02-26T07:00:59;21.70;49.50
38263;DHT22;24054;50.128;19.730;2024-02-26T07:03:26;21.80;49.50
38263;DHT22;24054;50.128;19.730;2024-02-26T07:05:53;21.80;49.50
38263;DHT22;24054;50.128;19.730;2024-02-26T07:08:20;21.90;49.50
38263;DHT22;24054;50.128;19.730;2024-02-26T07:10:48;21.90;49.50
38263;DHT22;24054;50.128;19.730;2024-02-26T07:13:16;22.00;49.60
38263;DHT22;24054;50.128;19.730;2024-02-26T07:15:43;22.00;49.70
38263;DHT22;24054;50.128;19.730;2024-02-26T07:18:11;22.10;50.10
38263;DHT22;24054;50.128;19.730;2024-02-26T07:20:38;22.10;50.30
38263;DHT22;24054;50.128;19.730;2024-02-26T07:23:05;22.20;50.50
38263;DHT22;24054;50.128;19.730;2024-02-26T07:25:32;22.20;50.60
38263;DHT22;24054;50.128;19.730;2024-02-26T07:27:59;22.20;50.60
38263;DHT22;24054;50.128;19.730;2024-02-26T07:30:28;22.30;70.20
38263;DHT22;24054;50.128;19.730;2024-02-26T07:32:55;22.30;51.50
38263;DHT22;24054;50.128;19.730;2024-02-26T07:35:22;22.30;51.00
38263;DHT22;24054;50.128;19.730;2024-02-26T07:37:49;22.30;50.80
38263;DHT22;24054;50.128;19.730;2024-02-26T07:40:17;22.40;51.20
38263;DHT22;24054;50.128;19.730;2024-02-26T07:42:44;22.40;51.00
38263;DHT22;24054;50.128;19.730;2024-02-26T07:45:11;23.00;60.10
38263;DHT22;24054;50.128;19.730;2024-02-26T07:47:42;22.50;51.00
38263;DHT22;24054;50.128;19.730;2024-02-26T07:50:10;22.50;51.70
38263;DHT22;24054;50.128;19.730;2024-02-26T07:52:37;22.50;51.20
38263;DHT22;24054;50.128;19.730;2024-02-26T07:55:06;22.60;51.20
38263;DHT22;24054;50.128;19.730;2024-02-26T07:57:34;22.60;51.20
38263;DHT22;24054;50.128;19.730;2024-02-26T08:00:01;22.60;50.80
38263;DHT22;24054;50.128;19.730;2024-02-26T08:02:28;22.70;50.70
38263;DHT22;24054;50.128;19.730;2024-02-26T08:04:56;22.70;50.60
38263;DHT22;24054;50.128;19.730;2024-02-26T08:07:23;22.70;50.70
38263;DHT22;24054;50.128;19.730;2024-02-26T08:09:50;22.80;50.90
38263;DHT22;24054;50.128;19.730;2024-02-26T08:12:17;22.70;50.90
38263;DHT22;24054;50.128;19.730;2024-02-26T08:14:44;22.70;50.90
38263;DHT22;24054;50.128;19.730;2024-02-26T08:17:12;22.70;50.90
38263;DHT22;24054;50.128;19.730;2024-02-26T08:19:39;22.70;50.90
38263;DHT22;24054;50.128;19.730;2024-02-26T08:22:07;22.70;51.00
38263;DHT22;24054;50.128;19.730;2024-02-26T08:24:36;22.70;51.00
38263;DHT22;24054;50.128;19.730;2024-02-26T08:27:03;23.10;78.60
38263;DHT22;24054;50.128;19.730;2024-02-26T08:29:30;22.60;51.00
38263;DHT22;24054;50.128;19.730;2024-02-26T08:31:57;22.60;50.90
38263;DHT22;24054;50.128;19.730;2024-02-26T08:34:25;22.60;50.80
38263;DHT22;24054;50.128;19.730;2024-02-26T08:36:52;22.60;50.70
38263;DHT22;24054;50.128;19.730;2024-02-26T08:39:20;22.60;50.70
38263;DHT22;24054;50.128;19.730;2024-02-26T08:41:47;22.60;50.70
38263;DHT22;24054;50.128;19.730;2024-02-26T08:44:14;22.60;50.70
38263;DHT22;24054;50.128;19.730;2024-02-26T08:46:41;22.50;50.50
38263;DHT22;24054;50.128;19.730;2024-02-26T08:49:09;22.50;50.50
38263;DHT22;24054;50.128;19.730;2024-02-26T08:51:41;22.50;50.50
38263;DHT22;24054;50.128;19.730;2024-02-26T08:54:08;22.50;51.20
38263;DHT22;24054;50.128;19.730;2024-02-26T08:56:37;22.50;51.70
38263;DHT22;24054;50.128;19.730;2024-02-26T08:59:04;22.40;51.90
38263;DHT22;24054;50.128;19.730;2024-02-26T09:01:31;22.50;52.20
38263;DHT22;24054;50.128;19.730;2024-02-26T09:03:59;22.40;52.40
38263;DHT22;24054;50.128;19.730;2024-02-26T09:06:26;22.40;52.50
38263;DHT22;24054;50.128;19.730;2024-02-26T09:08:53;22.40;52.40
38263;DHT22;24054;50.128;19.730;2024-02-26T09:11:20;22.40;52.40
38263;DHT22;24054;50.128;19.730;2024-02-26T09:13:49;22.40;52.60
38263;DHT22;24054;50.128;19.730;2024-02-26T09:16:16;22.40;52.70
38263;DHT22;24054;50.128;19.730;2024-02-26T09:18:43;22.30;52.80
38263;DHT22;24054;50.128;19.730;2024-02-26T09:21:10;22.30;52.80
38263;DHT22;24054;50.128;19.730;2024-02-26T09:23:37;22.20;52.60
38263;DHT22;24054;50.128;19.730;2024-02-26T09:26:05;22.30;52.70
38263;DHT22;24054;50.128;19.730;2024-02-26T09:28:33;22.30;52.90
38263;DHT22;24054;50.128;19.730;2024-02-26T09:31:04;22.30;53.10
38263;DHT22;24054;50.128;19.730;2024-02-26T09:33:32;22.30;53.20
38263;DHT22;24054;50.128;19.730;2024-02-26T09:35:59;22.30;53.20
38263;DHT22;24054;50.128;19.730;2024-02-26T09:38:28;22.30;53.00
38263;DHT22;24054;50.128;19.730;2024-02-26T09:40:56;22.20;52.90
38263;DHT22;24054;50.128;19.730;2024-02-26T09:43:23;22.30;53.00
38263;DHT22;24054;50.128;19.730;2024-02-26T09:45:50;22.20;52.90
38263;DHT22;24054;50.128;19.730;2024-02-26T09:48:20;22.20;52.80
38263;DHT22;24054;50.128;19.730;2024-02-26T09:50:47;22.20;52.80
38263;DHT22;24054;50.128;19.730;2024-02-26T09:53:14;22.20;52.80
38263;DHT22;24054;50.128;19.730;2024-02-26T09:55:41;22.20;52.70
38263;DHT22;24054;50.128;19.730;2024-02-26T09:58:09;22.20;52.80
38263;DHT22;24054;50.128;19.730;2024-02-26T10:00:49;22.20;52.80
38263;DHT22;24054;50.128;19.730;2024-02-26T10:03:21;22.20;52.80
38263;DHT22;24054;50.128;19.730;2024-02-26T10:05:50;22.20;52.80
38263;DHT22;24054;50.128;19.730;2024-02-26T10:08:21;22.20;52.80
38263;DHT22;24054;50.128;19.730;2024-02-26T10:10:50;22.20;52.70
38263;DHT22;24054;50.128;19.730;2024-02-26T10:13:17;22.30;52.80
38263;DHT22;24054;50.128;19.730;2024-02-26T10:15:46;22.30;52.80
38263;DHT22;24054;50.128;19.730;2024-02-26T10:18:13;22.30;52.80
38263;DHT22;24054;50.128;19.730;2024-02-26T10:20:41;22.30;52.80
38263;DHT22;24054;50.128;19.730;2024-02-26T10:23:08;22.30;52.90
38263;DHT22;24054;50.128;19.730;2024-02-26T10:25:35;22.30;52.80
38263;DHT22;24054;50.128;19.730;2024-02-26T10:28:03;22.30;52.70
38263;DHT22;24054;50.128;19.730;2024-02-26T10:30:30;22.40;52.80
38263;DHT22;24054;50.128;19.730;2024-02-26T10:32:57;22.40;52.80
38263;DHT22;24054;50.128;19.730;2024-02-26T10:35:24;22.40;52.80
38263;DHT22;24054;50.128;19.730;2024-02-26T10:37:53;22.40;52.90
38263;DHT22;24054;50.128;19.730;2024-02-26T10:40:20;22.40;52.90
38263;DHT22;24054;50.128;19.730;2024-02-26T10:42:48;22.30;52.90
38263;DHT22;24054;50.128;19.730;2024-02-26T10:45:15;22.30;52.90
38263;DHT22;24054;50.128;19.730;2024-02-26T10:47:42;22.30;52.90
38263;DHT22;24054;50.128;19.730;2024-02-26T10:50:13;22.30;52.90
38263;DHT22;24054;50.128;19.730;2024-02-26T10:52:42;22.30;52.90
38263;DHT22;24054;50.128;19.730;2024-02-26T10:55:15;22.40;52.80
38263;DHT22;24054;50.128;19.730;2024-02-26T10:57:45;22.40;52.80
38263;DHT22;24054;50.128;19.730;2024-02-26T11:00:15;22.40;52.90
38263;DHT22;24054;50.128;19.730;2024-02-26T11:02:44;22.30;52.90
38263;DHT22;24054;50.128;19.730;2024-02-26T11:05:12;22.30;53.00
38263;DHT22;24054;50.128;19.730;2024-02-26T11:07:41;22.30;53.00
38263;DHT22;24054;50.128;19.730;2024-02-26T11:10:12;22.30;53.10
38263;DHT22;24054;50.128;19.730;2024-02-26T11:12:39;22.30;53.20
38263;DHT22;24054;50.128;19.730;2024-02-26T11:15:08;22.20;53.20
38263;DHT22;24054;50.128;19.730;2024-02-26T11:17:36;22.30;53.30
38263;DHT22;24054;50.128;19.730;2024-02-26T11:20:05;22.20;53.20
38263;DHT22;24054;50.128;19.730;2024-02-26T11:22:36;22.20;53.20
38263;DHT22;24054;50.128;19.730;2024-02-26T11:25:04;22.20;53.30
38263;DHT22;24054;50.128;19.730;2024-02-26T11:27:36;22.20;53.30
38263;DHT22;24054;50.128;19.730;2024-02-26T11:30:10;22.20;53.30
38263;DHT22;24054;50.128;19.730;2024-02-26T11:32:38;22.20;53.30
38263;DHT22;24054;50.128;19.730;2024-02-26T11:35:08;22.10;53.30
38263;DHT22;24054;50.128;19.730;2024-02-26T11:37:36;22.10;53.30
38263;DHT22;24054;50.128;19.730;2024-02-26T11:40:03;22.10;53.30
38263;DHT22;24054;50.128;19.730;2024-02-26T11:42:32;22.10;53.30
38263;DHT22;24054;50.128;19.730;2024-02-26T11:45:00;22.10;53.30
38263;DHT22;24054;50.128;19.730;2024-02-26T11:47:27;22.10;53.20
38263;DHT22;24054;50.128;19.730;2024-02-26T11:49:55;22.10;53.30
38263;DHT22;24054;50.128;19.730;2024-02-26T11:52:22;22.10;53.30
38263;DHT22;24054;50.128;19.730;2024-02-26T11:54:50;22.10;53.30
38263;DHT22;24054;50.128;19.730;2024-02-26T11:57:24;22.10;53.30
38263;DHT22;24054;50.128;19.730;2024-02-26T11:59:53;22.00;53.30
38263;DHT22;24054;50.128;19.730;2024-02-26T12:02:45;22.00;53.20
38263;DHT22;24054;50.128;19.730;2024-02-26T12:05:14;22.00;53.30
38263;DHT22;24054;50.128;19.730;2024-02-26T12:07:45;22.00;53.30
38263;DHT22;24054;50.128;19.730;2024-02-26T12:10:19;22.10;53.30
38263;DHT22;24054;50.128;19.730;2024-02-26T12:12:47;22.10;53.40
38263;DHT22;24054;50.128;19.730;2024-02-26T12:15:16;22.10;54.00
38263;DHT22;24054;50.128;19.730;2024-02-26T12:17:48;22.10;53.30
38263;DHT22;24054;50.128;19.730;2024-02-26T12:20:17;22.10;53.40
38263;DHT22;24054;50.128;19.730;2024-02-26T12:22:46;22.20;53.60
38263;DHT22;24054;50.128;19.730;2024-02-26T12:25:13;22.10;53.50
38263;DHT22;24054;50.128;19.730;2024-02-26T12:27:41;22.20;53.70
38263;DHT22;24054;50.128;19.730;2024-02-26T12:30:09;22.20;53.80
38263;DHT22;24054;50.128;19.730;2024-02-26T12:32:38;22.20;53.90
38263;DHT22;24054;50.128;19.730;2024-02-26T12:35:05;22.20;54.10
38263;DHT22;24054;50.128;19.730;2024-02-26T12:37:33;22.20;54.20
38263;DHT22;24054;50.128;19.730;2024-02-26T12:40:04;22.20;54.30
38263;DHT22;24054;50.128;19.730;2024-02-26T12:42:32;22.20;54.40
38263;DHT22;24054;50.128;19.730;2024-02-26T12:45:05;22.20;54.50
38263;DHT22;24054;50.128;19.730;2024-02-26T12:47:39;22.20;54.40
38263;DHT22;24054;50.128;19.730;2024-02-26T12:50:08;22.20;54.50
38263;DHT22;24054;50.128;19.730;2024-02-26T12:52:35;22.30;54.50
38263;DHT22;24054;50.128;19.730;2024-02-26T12:55:04;21.80;70.60
38263;DHT22;24054;50.128;19.730;2024-02-26T12:57:33;22.50;56.40
38263;DHT22;24054;50.128;19.730;2024-02-26T13:00:01;22.30;53.70
38263;DHT22;24054;50.128;19.730;2024-02-26T13:02:30;22.30;54.30
38263;DHT22;24054;50.128;19.730;2024-02-26T13:04:59;22.30;54.30
38263;DHT22;24054;50.128;19.730;2024-02-26T13:07:27;22.30;54.30
38263;DHT22;24054;50.128;19.730;2024-02-26T13:09:54;22.30;54.30
38263;DHT22;24054;50.128;19.730;2024-02-26T13:12:22;22.30;54.30
38263;DHT22;24054;50.128;19.730;2024-02-26T13:14:59;22.30;54.30
38263;DHT22;24054;50.128;19.730;2024-02-26T13:17:26;22.20;54.20
38263;DHT22;24054;50.128;19.730;2024-02-26T13:19:54;22.30;54.30
38263;DHT22;24054;50.128;19.730;2024-02-26T13:22:22;22.30;54.30
38263;DHT22;24054;50.128;19.730;2024-02-26T13:24:55;22.20;54.20
38263;DHT22;24054;50.128;19.730;2024-02-26T13:27:23;22.20;54.30
38263;DHT22;24054;50.128;19.730;2024-02-26T13:30:03;22.20;54.30
38263;DHT22;24054;50.128;19.730;2024-02-26T13:32:32;22.20;54.30
38263;DHT22;24054;50.128;19.730;2024-02-26T13:35:07;22.20;54.30
38263;DHT22;24054;50.128;19.730;2024-02-26T13:37:36;22.20;54.30
38263;DHT22;24054;50.128;19.730;2024-02-26T13:40:08;22.20;54.20
38263;DHT22;24054;50.128;19.730;2024-02-26T13:42:35;22.10;54.20
38263;DHT22;24054;50.128;19.730;2024-02-26T13:45:04;22.10;54.10
38263;DHT22;24054;50.128;19.730;2024-02-26T13:47:32;22.10;54.10
38263;DHT22;24054;50.128;19.730;2024-02-26T13:49:59;22.10;54.10
38263;DHT22;24054;50.128;19.730;2024-02-26T13:52:27;22.10;54.00
38263;DHT22;24054;50.128;19.730;2024-02-26T13:54:55;22.10;54.00
38263;DHT22;24054;50.128;19.730;2024-02-26T13:57:22;22.10;54.00
38263;DHT22;24054;50.128;19.730;2024-02-26T13:59:50;22.00;53.90
38263;DHT22;24054;50.128;19.730;2024-02-26T14:02:17;22.10;54.00
38263;DHT22;24054;50.128;19.730;2024-02-26T14:04:44;22.00;54.00
38263;DHT22;24054;50.128;19.730;2024-02-26T14:07:12;22.00;53.90
38263;DHT22;24054;50.128;19.730;2024-02-26T14:09:39;22.00;54.00
38263;DHT22;24054;50.128;19.730;2024-02-26T14:12:08;22.00;54.00
38263;DHT22;24054;50.128;19.730;2024-02-26T14:14:35;22.00;54.00
38263;DHT22;24054;50.128;19.730;2024-02-26T14:17:05;22.00;54.00
38263;DHT22;24054;50.128;19.730;2024-02-26T14:19:32;22.00;54.00
38263;DHT22;24054;50.128;19.730;2024-02-26T14:21:59;22.00;54.00
38263;DHT22;24054;50.128;19.730;2024-02-26T14:24:26;22.00;54.00
38263;DHT22;24054;50.128;19.730;2024-02-26T14:26:53;22.00;54.00
38263;DHT22;24054;50.128;19.730;2024-02-26T14:29:22;22.00;54.00
38263;DHT22;24054;50.128;19.730;2024-02-26T14:31:49;22.00;54.00
38263;DHT22;24054;50.128;19.730;2024-02-26T14:34:16;22.00;54.00
38263;DHT22;24054;50.128;19.730;2024-02-26T14:36:44;22.10;54.00
38263;DHT22;24054;50.128;19.730;2024-02-26T14:39:12;22.00;54.00
38263;DHT22;24054;50.128;19.730;2024-02-26T14:41:39;22.00;53.90
38263;DHT22;24054;50.128;19.730;2024-02-26T14:44:06;22.00;54.50
38263;DHT22;24054;50.128;19.730;2024-02-26T14:46:36;22.00;53.90
38263;DHT22;24054;50.128;19.730;2024-02-26T14:49:02;22.10;53.90
38263;DHT22;24054;50.128;19.730;2024-02-26T14:51:31;22.00;53.80
38263;DHT22;24054;50.128;19.730;2024-02-26T14:53:58;22.10;53.90
38263;DHT22;24054;50.128;19.730;2024-02-26T14:56:27;22.10;53.90
38263;DHT22;24054;50.128;19.730;2024-02-26T14:58:54;22.10;53.80
38263;DHT22;24054;50.128;19.730;2024-02-26T15:01:21;22.00;53.80
38263;DHT22;24054;50.128;19.730;2024-02-26T15:03:51;22.00;53.70
38263;DHT22;24054;50.128;19.730;2024-02-26T15:06:18;22.10;53.80
38263;DHT22;24054;50.128;19.730;2024-02-26T15:08:45;22.00;53.80
38263;DHT22;24054;50.128;19.730;2024-02-26T15:11:12;22.00;53.70
38263;DHT22;24054;50.128;19.730;2024-02-26T15:13:40;22.00;53.70
38263;DHT22;24054;50.128;19.730;2024-02-26T15:16:07;22.10;53.80
38263;DHT22;24054;50.128;19.730;2024-02-26T15:18:34;22.10;53.80
38263;DHT22;24054;50.128;19.730;2024-02-26T15:21:04;22.00;53.70
38263;DHT22;24054;50.128;19.730;2024-02-26T15:23:32;22.10;53.80
38263;DHT22;24054;50.128;19.730;2024-02-26T15:26:01;22.10;53.20
38263;DHT22;24054;50.128;19.730;2024-02-26T15:28:29;22.00;53.70
38263;DHT22;24054;50.128;19.730;2024-02-26T15:30:56;22.10;53.80
38263;DHT22;24054;50.128;19.730;2024-02-26T15:33:23;22.00;53.70
38263;DHT22;24054;50.128;19.730;2024-02-26T15:35:51;22.10;53.80
38263;DHT22;24054;50.128;19.730;2024-02-26T15:38:19;22.00;53.70
38263;DHT22;24054;50.128;19.730;2024-02-26T15:40:47;22.00;53.80
38263;DHT22;24054;50.128;19.730;2024-02-26T15:43:14;22.00;53.80
38263;DHT22;24054;50.128;19.730;2024-02-26T15:45:41;22.00;53.70
38263;DHT22;24054;50.128;19.730;2024-02-26T15:48:08;22.00;53.80
38263;DHT22;24054;50.128;19.730;2024-02-26T15:50:36;22.00;53.80
38263;DHT22;24054;50.128;19.730;2024-02-26T15:53:06;22.00;53.80
38263;DHT22;24054;50.128;19.730;2024-02-26T15:55:35;21.90;53.70
38263;DHT22;24054;50.128;19.730;2024-02-26T15:58:02;21.90;53.70
38263;DHT22;24054;50.128;19.730;2024-02-26T16:00:30;22.00;53.80
38263;DHT22;24054;50.128;19.730;2024-02-26T16:02:57;21.90;53.70
38263;DHT22;24054;50.128;19.730;2024-02-26T16:05:24;21.90;53.70
38263;DHT22;24054;50.128;19.730;2024-02-26T16:07:54;21.90;53.70
38263;DHT22;24054;50.128;19.730;2024-02-26T16:10:22;22.00;53.70
38263;DHT22;24054;50.128;19.730;2024-02-26T16:12:57;21.90;53.70
38263;DHT22;24054;50.128;19.730;2024-02-26T16:15:26;21.90;53.70
38263;DHT22;24054;50.128;19.730;2024-02-26T16:17:53;22.00;53.70
38263;DHT22;24054;50.128;19.730;2024-02-26T16:20:24;21.90;53.60
38263;DHT22;24054;50.128;19.730;2024-02-26T16:22:54;21.90;53.60
38263;DHT22;24054;50.128;19.730;2024-02-26T16:25:21;21.90;53.60
38263;DHT22;24054;50.128;19.730;2024-02-26T16:27:48;21.90;53.60